sensor_id;sensor_type;location;lat;lon;timestamp;temperature;humidity
69626;DHT22;56847;51.984;5.088;2022-12-07T00:01:48;6.90;81.90
69626;DHT22;56847;51.984;5.088;2022-12-07T00:04:17;6.90;82.00
69626;DHT22;56847;51.984;5.088;2022-12-07T00:06:46;6.90;82.00
69626;DHT22;56847;51.984;5.088;2022-12-07T00:09:16;7.00;82.10
69626;DHT22;56847;51.984;5.088;2022-12-07T00:11:49;7.00;82.30
69626;DHT22;56847;51.984;5.088;2022-12-07T00:14:17;7.00;82.50
69626;DHT22;56847;51.984;5.088;2022-12-07T00:16:45;7.10;82.70
69626;DHT22;56847;51.984;5.088;2022-12-07T00:19:13;7.20;83.10
69626;DHT22;56847;51.984;5.088;2022-12-07T00:21:41;7.20;83.20
69626;DHT22;56847;51.984;5.088;2022-12-07T00:24:09;7.20;83.30
69626;DHT22;56847;51.984;5.088;2022-12-07T00:26:38;7.30;83.30
69626;DHT22;56847;51.984;5.088;2022-12-07T00:29:20;7.30;83.30
69626;DHT22;56847;51.984;5.088;2022-12-07T00:31:48;7.40;82.90
69626;DHT22;56847;51.984;5.088;2022-12-07T00:34:19;7.40;82.70
69626;DHT22;56847;51.984;5.088;2022-12-07T00:36:47;7.30;82.40
69626;DHT22;56847;51.984;5.088;2022-12-07T00:39:18;7.30;82.30
69626;DHT22;56847;51.984;5.088;2022-12-07T00:41:48;7.20;82.30
69626;DHT22;56847;51.984;5.088;2022-12-07T00:44:15;7.10;82.20
69626;DHT22;56847;51.984;5.088;2022-12-07T00:46:44;7.10;82.40
69626;DHT22;56847;51.984;5.088;2022-12-07T00:49:13;7.00;82.50
69626;DHT22;56847;51.984;5.088;2022-12-07T00:51:47;7.00;82.40
69626;DHT22;56847;51.984;5.088;2022-12-07T00:54:28;6.90;82.40
69626;DHT22;56847;51.984;5.088;2022-12-07T00:56:56;6.80;82.50
69626;DHT22;56847;51.984;5.088;2022-12-07T00:59:23;6.80;82.60
69626;DHT22;56847;51.984;5.088;2022-12-07T01:01:51;6.80;82.50
69626;DHT22;56847;51.984;5.088;2022-12-07T01:04:18;6.70;82.40
69626;DHT22;56847;51.984;5.088;2022-12-07T01:06:45;6.70;82.50
69626;DHT22;56847;51.984;5.088;2022-12-07T01:09:15;6.70;82.50
69626;DHT22;56847;51.984;5.088;2022-12-07T01:11:42;6.70;82.70
69626;DHT22;56847;51.984;5.088;2022-12-07T01:14:10;6.70;82.90
69626;DHT22;56847;51.984;5.088;2022-12-07T01:16:38;6.70;83.00
69626;DHT22;56847;51.984;5.088;2022-12-07T01:19:06;6.70;83.10
69626;DHT22;56847;51.984;5.088;2022-12-07T01:21:34;6.80;83.10
69626;DHT22;56847;51.984;5.088;2022-12-07T01:24:07;6.80;83.20
69626;DHT22;56847;51.984;5.088;2022-12-07T01:26:35;6.80;83.20
69626;DHT22;56847;51.984;5.088;2022-12-07T01:29:03;6.80;83.40
69626;DHT22;56847;51.984;5.088;2022-12-07T01:31:30;6.80;83.20
69626;DHT22;56847;51.984;5.088;2022-12-07T01:33:59;6.80;83.00
69626;DHT22;56847;51.984;5.088;2022-12-07T01:36:32;6.70;82.90
69626;DHT22;56847;51.984;5.088;2022-12-07T01:39:02;6.70;82.90
69626;DHT22;56847;51.984;5.088;2022-12-07T01:41:33;6.70;82.80
69626;DHT22;56847;51.984;5.088;2022-12-07T01:44:14;6.70;82.80
69626;DHT22;56847;51.984;5.088;2022-12-07T01:46:44;6.60;82.80
69626;DHT22;56847;51.984;5.088;2022-12-07T01:49:26;6.60;82.70
69626;DHT22;56847;51.984;5.088;2022-12-07T01:52:01;6.60;82.60
69626;DHT22;56847;51.984;5.088;2022-12-07T01:54:31;6.60;82.60
69626;DHT22;56847;51.984;5.088;2022-12-07T01:57:03;6.50;82.70
69626;DHT22;56847;51.984;5.088;2022-12-07T01:59:33;6.50;82.90
69626;DHT22;56847;51.984;5.088;2022-12-07T02:02:02;6.50;83.00
69626;DHT22;56847;51.984;5.088;2022-12-07T02:04:31;6.60;83.10
69626;DHT22;56847;51.984;5.088;2022-12-07T02:06:59;6.60;83.10
69626;DHT22;56847;51.984;5.088;2022-12-07T02:09:28;6.60;83.10
69626;DHT22;56847;51.984;5.088;2022-12-07T02:11:56;6.60;83.20
69626;DHT22;56847;51.984;5.088;2022-12-07T02:14:27;6.60;83.50
69626;DHT22;56847;51.984;5.088;2022-12-07T02:20:28;6.70;83.80
69626;DHT22;56847;51.984;5.088;2022-12-07T02:26:47;6.80;84.20
69626;DHT22;56847;51.984;5.088;2022-12-07T02:29:26;6.80;84.20
69626;DHT22;56847;51.984;5.088;2022-12-07T02:32:37;6.90;84.40
69626;DHT22;56847;51.984;5.088;2022-12-07T02:35:11;7.00;84.40
69626;DHT22;56847;51.984;5.088;2022-12-07T02:37:47;7.00;84.40
69626;DHT22;56847;51.984;5.088;2022-12-07T02:40:24;7.10;84.40
69626;DHT22;56847;51.984;5.088;2022-12-07T02:43:06;7.20;84.30
69626;DHT22;56847;51.984;5.088;2022-12-07T02:45:38;7.20;84.20
69626;DHT22;56847;51.984;5.088;2022-12-07T02:48:09;7.20;84.00
69626;DHT22;56847;51.984;5.088;2022-12-07T02:50:39;7.20;83.70
69626;DHT22;56847;51.984;5.088;2022-12-07T03:07:22;7.00;83.00
69626;DHT22;56847;51.984;5.088;2022-12-07T03:10:11;7.00;82.80
69626;DHT22;56847;51.984;5.088;2022-12-07T03:12:44;7.00;83.00
69626;DHT22;56847;51.984;5.088;2022-12-07T03:15:27;7.00;83.20
69626;DHT22;56847;51.984;5.088;2022-12-07T03:17:58;7.00;83.10
69626;DHT22;56847;51.984;5.088;2022-12-07T03:20:27;6.90;83.10
69626;DHT22;56847;51.984;5.088;2022-12-07T03:22:56;6.90;82.90
69626;DHT22;56847;51.984;5.088;2022-12-07T03:25:25;6.90;82.90
69626;DHT22;56847;51.984;5.088;2022-12-07T03:27:58;6.90;83.00
69626;DHT22;56847;51.984;5.088;2022-12-07T03:30:36;6.90;82.90
69626;DHT22;56847;51.984;5.088;2022-12-07T03:33:11;6.80;82.80
69626;DHT22;56847;51.984;5.088;2022-12-07T03:35:45;6.80;82.80
69626;DHT22;56847;51.984;5.088;2022-12-07T03:38:30;6.80;82.70
69626;DHT22;56847;51.984;5.088;2022-12-07T03:41:12;6.70;82.80
69626;DHT22;56847;51.984;5.088;2022-12-07T03:43:44;6.70;82.70
69626;DHT22;56847;51.984;5.088;2022-12-07T03:49:27;6.60;82.30
69626;DHT22;56847;51.984;5.088;2022-12-07T03:52:12;6.60;82.00
69626;DHT22;56847;51.984;5.088;2022-12-07T03:54:52;6.50;82.00
69626;DHT22;56847;51.984;5.088;2022-12-07T03:57:25;6.50;82.00
69626;DHT22;56847;51.984;5.088;2022-12-07T03:59:55;6.40;82.00
69626;DHT22;56847;51.984;5.088;2022-12-07T04:02:37;6.40;82.40
69626;DHT22;56847;51.984;5.088;2022-12-07T04:05:05;6.50;82.50
69626;DHT22;56847;51.984;5.088;2022-12-07T04:07:33;6.50;82.40
69626;DHT22;56847;51.984;5.088;2022-12-07T04:10:01;6.50;82.40
69626;DHT22;56847;51.984;5.088;2022-12-07T04:12:30;6.40;82.30
69626;DHT22;56847;51.984;5.088;2022-12-07T04:14:58;6.40;82.30
69626;DHT22;56847;51.984;5.088;2022-12-07T04:17:25;6.40;82.20
69626;DHT22;56847;51.984;5.088;2022-12-07T04:19:55;6.30;82.20
69626;DHT22;56847;51.984;5.088;2022-12-07T04:22:25;6.30;82.30
69626;DHT22;56847;51.984;5.088;2022-12-07T04:24:52;6.30;82.40
69626;DHT22;56847;51.984;5.088;2022-12-07T04:27:20;6.30;82.70
69626;DHT22;56847;51.984;5.088;2022-12-07T04:29:51;6.40;82.90
69626;DHT22;56847;51.984;5.088;2022-12-07T04:32:19;6.50;83.20
69626;DHT22;56847;51.984;5.088;2022-12-07T04:34:47;6.50;83.20
69626;DHT22;56847;51.984;5.088;2022-12-07T04:37:21;6.60;82.80
69626;DHT22;56847;51.984;5.088;2022-12-07T04:39:52;6.50;82.50
69626;DHT22;56847;51.984;5.088;2022-12-07T04:42:19;6.50;82.30
69626;DHT22;56847;51.984;5.088;2022-12-07T04:44:48;6.40;82.30
69626;DHT22;56847;51.984;5.088;2022-12-07T04:47:16;6.40;82.10
69626;DHT22;56847;51.984;5.088;2022-12-07T04:49:46;6.30;82.10
69626;DHT22;56847;51.984;5.088;2022-12-07T04:52:13;6.30;82.10
69626;DHT22;56847;51.984;5.088;2022-12-07T04:54:41;6.30;82.20
69626;DHT22;56847;51.984;5.088;2022-12-07T04:57:09;6.30;82.30
69626;DHT22;56847;51.984;5.088;2022-12-07T04:59:37;6.30;82.10
69626;DHT22;56847;51.984;5.088;2022-12-07T05:02:11;6.30;82.00
69626;DHT22;56847;51.984;5.088;2022-12-07T05:04:39;6.20;82.00
69626;DHT22;56847;51.984;5.088;2022-12-07T05:07:07;6.20;82.00
69626;DHT22;56847;51.984;5.088;2022-12-07T05:09:48;6.20;82.00
69626;DHT22;56847;51.984;5.088;2022-12-07T05:12:16;6.10;81.90
69626;DHT22;56847;51.984;5.088;2022-12-07T05:14:43;6.10;81.80
69626;DHT22;56847;51.984;5.088;2022-12-07T05:17:11;6.10;81.80
69626;DHT22;56847;51.984;5.088;2022-12-07T05:19:39;6.10;81.80
69626;DHT22;56847;51.984;5.088;2022-12-07T05:22:07;6.00;81.90
69626;DHT22;56847;51.984;5.088;2022-12-07T05:24:34;6.00;82.00
69626;DHT22;56847;51.984;5.088;2022-12-07T05:27:04;6.00;82.10
69626;DHT22;56847;51.984;5.088;2022-12-07T05:29:32;6.00;82.10
69626;DHT22;56847;51.984;5.088;2022-12-07T05:32:00;6.00;82.20
69626;DHT22;56847;51.984;5.088;2022-12-07T05:34:28;6.10;82.20
69626;DHT22;56847;51.984;5.088;2022-12-07T05:36:58;6.10;82.40
69626;DHT22;56847;51.984;5.088;2022-12-07T05:39:28;6.20;82.50
69626;DHT22;56847;51.984;5.088;2022-12-07T05:41:56;6.20;82.60
69626;DHT22;56847;51.984;5.088;2022-12-07T05:44:43;6.20;82.60
69626;DHT22;56847;51.984;5.088;2022-12-07T05:47:12;6.30;82.70
69626;DHT22;56847;51.984;5.088;2022-12-07T05:49:40;6.40;82.90
69626;DHT22;56847;51.984;5.088;2022-12-07T05:52:12;6.40;82.80
69626;DHT22;56847;51.984;5.088;2022-12-07T05:54:40;6.40;82.90
69626;DHT22;56847;51.984;5.088;2022-12-07T05:57:07;6.50;83.00
69626;DHT22;56847;51.984;5.088;2022-12-07T05:59:49;6.50;82.90
69626;DHT22;56847;51.984;5.088;2022-12-07T06:02:17;6.60;82.90
69626;DHT22;56847;51.984;5.088;2022-12-07T06:04:46;6.60;82.90
69626;DHT22;56847;51.984;5.088;2022-12-07T06:07:15;6.60;83.00
69626;DHT22;56847;51.984;5.088;2022-12-07T06:09:43;6.70;83.00
69626;DHT22;56847;51.984;5.088;2022-12-07T07:54:18;6.40;83.30
69626;DHT22;56847;51.984;5.088;2022-12-07T07:56:45;6.30;83.30
69626;DHT22;56847;51.984;5.088;2022-12-07T07:59:12;6.40;83.40
69626;DHT22;56847;51.984;5.088;2022-12-07T08:01:38;6.40;83.40
69626;DHT22;56847;51.984;5.088;2022-12-07T08:04:06;6.40;83.40
69626;DHT22;56847;51.984;5.088;2022-12-07T08:06:33;6.40;83.30
69626;DHT22;56847;51.984;5.088;2022-12-07T08:09:00;6.40;83.40
69626;DHT22;56847;51.984;5.088;2022-12-07T08:11:27;6.40;83.30
69626;DHT22;56847;51.984;5.088;2022-12-07T08:13:54;6.40;83.20
69626;DHT22;56847;51.984;5.088;2022-12-07T08:16:21;6.40;83.00
69626;DHT22;56847;51.984;5.088;2022-12-07T08:18:48;6.40;83.00
69626;DHT22;56847;51.984;5.088;2022-12-07T08:21:16;6.40;83.10
69626;DHT22;56847;51.984;5.088;2022-12-07T08:23:43;6.40;83.00
69626;DHT22;56847;51.984;5.088;2022-12-07T08:26:13;6.50;83.10
69626;DHT22;56847;51.984;5.088;2022-12-07T08:28:41;6.50;83.10
69626;DHT22;56847;51.984;5.088;2022-12-07T08:31:15;6.50;83.00
69626;DHT22;56847;51.984;5.088;2022-12-07T08:33:47;6.60;82.90
69626;DHT22;56847;51.984;5.088;2022-12-07T08:36:15;6.60;82.80
69626;DHT22;56847;51.984;5.088;2022-12-07T08:38:42;6.60;82.80
69626;DHT22;56847;51.984;5.088;2022-12-07T08:41:29;6.60;82.90
69626;DHT22;56847;51.984;5.088;2022-12-07T08:43:57;6.60;83.20
69626;DHT22;56847;51.984;5.088;2022-12-07T08:46:28;6.70;83.40
69626;DHT22;56847;51.984;5.088;2022-12-07T08:49:02;6.80;83.50
69626;DHT22;56847;51.984;5.088;2022-12-07T08:51:30;6.90;83.80
69626;DHT22;56847;51.984;5.088;2022-12-07T08:53:58;7.10;84.20
69626;DHT22;56847;51.984;5.088;2022-12-07T08:56:27;7.30;84.30
69626;DHT22;56847;51.984;5.088;2022-12-07T08:58:54;7.50;84.10
69626;DHT22;56847;51.984;5.088;2022-12-07T09:01:21;7.50;83.80
69626;DHT22;56847;51.984;5.088;2022-12-07T09:03:48;7.60;83.60
69626;DHT22;56847;51.984;5.088;2022-12-07T09:06:15;7.60;83.50
69626;DHT22;56847;51.984;5.088;2022-12-07T09:08:47;7.60;83.50
69626;DHT22;56847;51.984;5.088;2022-12-07T09:11:15;7.60;83.40
69626;DHT22;56847;51.984;5.088;2022-12-07T09:13:42;7.60;83.10
69626;DHT22;56847;51.984;5.088;2022-12-07T09:16:09;7.70;83.10
69626;DHT22;56847;51.984;5.088;2022-12-07T09:18:36;7.60;82.90
69626;DHT22;56847;51.984;5.088;2022-12-07T09:21:03;7.60;82.70
69626;DHT22;56847;51.984;5.088;2022-12-07T09:23:30;7.60;82.70
69626;DHT22;56847;51.984;5.088;2022-12-07T09:26:04;7.60;82.50
69626;DHT22;56847;51.984;5.088;2022-12-07T09:28:36;7.60;82.50
69626;DHT22;56847;51.984;5.088;2022-12-07T09:31:04;7.50;82.50
69626;DHT22;56847;51.984;5.088;2022-12-07T09:33:54;7.50;82.60
69626;DHT22;56847;51.984;5.088;2022-12-07T09:36:22;7.60;82.60
69626;DHT22;56847;51.984;5.088;2022-12-07T09:38:49;7.70;83.00
69626;DHT22;56847;51.984;5.088;2022-12-07T09:41:16;7.90;83.10
69626;DHT22;56847;51.984;5.088;2022-12-07T09:43:43;8.10;83.20
69626;DHT22;56847;51.984;5.088;2022-12-07T09:46:15;8.20;82.50
69626;DHT22;56847;51.984;5.088;2022-12-07T09:48:44;8.30;82.40
69626;DHT22;56847;51.984;5.088;2022-12-07T09:51:16;8.40;82.40
69626;DHT22;56847;51.984;5.088;2022-12-07T09:53:50;8.40;82.00
69626;DHT22;56847;51.984;5.088;2022-12-07T09:56:19;8.40;82.00
69626;DHT22;56847;51.984;5.088;2022-12-07T09:58:46;8.40;81.70
69626;DHT22;56847;51.984;5.088;2022-12-07T10:01:16;8.30;81.80
69626;DHT22;56847;51.984;5.088;2022-12-07T10:03:52;8.30;81.90
69626;DHT22;56847;51.984;5.088;2022-12-07T10:06:19;8.30;82.10
69626;DHT22;56847;51.984;5.088;2022-12-07T10:08:47;8.30;82.10
69626;DHT22;56847;51.984;5.088;2022-12-07T10:11:14;8.20;82.30
69626;DHT22;56847;51.984;5.088;2022-12-07T10:13:48;8.20;82.40
69626;DHT22;56847;51.984;5.088;2022-12-07T10:18:52;8.20;82.00
69626;DHT22;56847;51.984;5.088;2022-12-07T10:21:25;8.20;81.80
69626;DHT22;56847;51.984;5.088;2022-12-07T10:31:58;8.10;82.30
69626;DHT22;56847;51.984;5.088;2022-12-07T10:34:28;8.20;82.60
69626;DHT22;56847;51.984;5.088;2022-12-07T10:37:16;8.30;82.70
69626;DHT22;56847;51.984;5.088;2022-12-07T10:39:49;8.50;82.80
69626;DHT22;56847;51.984;5.088;2022-12-07T10:42:23;8.70;82.60
69626;DHT22;56847;51.984;5.088;2022-12-07T10:45:24;8.80;82.60
69626;DHT22;56847;51.984;5.088;2022-12-07T10:48:30;8.90;81.80
69626;DHT22;56847;51.984;5.088;2022-12-07T10:51:19;9.00;81.80
69626;DHT22;56847;51.984;5.088;2022-12-07T10:54:03;9.10;81.10
69626;DHT22;56847;51.984;5.088;2022-12-07T10:57:01;9.10;80.60
69626;DHT22;56847;51.984;5.088;2022-12-07T10:59:47;9.00;80.90
69626;DHT22;56847;51.984;5.088;2022-12-07T11:02:41;9.00;80.80
69626;DHT22;56847;51.984;5.088;2022-12-07T11:14:03;8.90;81.10
69626;DHT22;56847;51.984;5.088;2022-12-07T11:19:49;8.80;81.70
69626;DHT22;56847;51.984;5.088;2022-12-07T11:25:34;9.10;82.50
69626;DHT22;56847;51.984;5.088;2022-12-07T11:33:47;9.30;81.50
69626;DHT22;56847;51.984;5.088;2022-12-07T11:36:38;9.30;81.30
69626;DHT22;56847;51.984;5.088;2022-12-07T11:39:34;9.30;81.00
69626;DHT22;56847;51.984;5.088;2022-12-07T11:42:06;9.30;81.20
69626;DHT22;56847;51.984;5.088;2022-12-07T11:45:00;9.30;81.20
69626;DHT22;56847;51.984;5.088;2022-12-07T11:47:45;9.30;80.70
69626;DHT22;56847;51.984;5.088;2022-12-07T11:53:06;9.40;81.00
69626;DHT22;56847;51.984;5.088;2022-12-07T11:55:57;9.50;81.00
69626;DHT22;56847;51.984;5.088;2022-12-07T12:04:13;10.10;79.70
69626;DHT22;56847;51.984;5.088;2022-12-07T12:06:44;10.10;79.60
69626;DHT22;56847;51.984;5.088;2022-12-07T12:09:15;10.10;79.60
69626;DHT22;56847;51.984;5.088;2022-12-07T12:21:01;10.00;79.10
69626;DHT22;56847;51.984;5.088;2022-12-07T12:26:06;10.00;78.80
69626;DHT22;56847;51.984;5.088;2022-12-07T12:31:47;9.90;78.70
69626;DHT22;56847;51.984;5.088;2022-12-07T12:37:40;9.90;78.70
69626;DHT22;56847;51.984;5.088;2022-12-07T12:42:54;9.90;78.30
69626;DHT22;56847;51.984;5.088;2022-12-07T12:45:30;9.80;77.60
69626;DHT22;56847;51.984;5.088;2022-12-07T12:48:26;9.80;78.00
69626;DHT22;56847;51.984;5.088;2022-12-07T12:57:24;9.70;78.30
69626;DHT22;56847;51.984;5.088;2022-12-07T13:00:14;9.70;78.30
69626;DHT22;56847;51.984;5.088;2022-12-07T13:02:54;9.70;78.80
69626;DHT22;56847;51.984;5.088;2022-12-07T13:05:24;9.70;78.40
69626;DHT22;56847;51.984;5.088;2022-12-07T13:08:00;9.60;77.40
69626;DHT22;56847;51.984;5.088;2022-12-07T13:10:37;9.60;77.40
69626;DHT22;56847;51.984;5.088;2022-12-07T13:23:38;9.10;76.80
69626;DHT22;56847;51.984;5.088;2022-12-07T13:29:11;9.00;77.20
69626;DHT22;56847;51.984;5.088;2022-12-07T13:32:00;9.00;77.20
69626;DHT22;56847;51.984;5.088;2022-12-07T13:34:31;9.00;77.30
69626;DHT22;56847;51.984;5.088;2022-12-07T13:37:16;9.10;77.50
69626;DHT22;56847;51.984;5.088;2022-12-07T13:39:57;9.20;77.20
69626;DHT22;56847;51.984;5.088;2022-12-07T13:42:34;9.30;77.60
69626;DHT22;56847;51.984;5.088;2022-12-07T13:45:24;9.50;77.40
69626;DHT22;56847;51.984;5.088;2022-12-07T13:48:33;9.60;77.60
69626;DHT22;56847;51.984;5.088;2022-12-07T13:51:03;9.80;77.60
69626;DHT22;56847;51.984;5.088;2022-12-07T13:53:31;9.70;76.00
69626;DHT22;56847;51.984;5.088;2022-12-07T13:55:59;9.50;74.10
69626;DHT22;56847;51.984;5.088;2022-12-07T13:58:31;9.10;74.30
69626;DHT22;56847;51.984;5.088;2022-12-07T14:00:59;8.70;75.50
69626;DHT22;56847;51.984;5.088;2022-12-07T14:03:34;8.50;76.50
69626;DHT22;56847;51.984;5.088;2022-12-07T14:06:25;8.40;77.80
69626;DHT22;56847;51.984;5.088;2022-12-07T14:09:20;8.40;78.70
69626;DHT22;56847;51.984;5.088;2022-12-07T14:11:50;8.50;79.00
69626;DHT22;56847;51.984;5.088;2022-12-07T14:14:21;8.50;79.30
69626;DHT22;56847;51.984;5.088;2022-12-07T14:17:13;8.50;79.20
69626;DHT22;56847;51.984;5.088;2022-12-07T14:19:45;8.50;79.30
69626;DHT22;56847;51.984;5.088;2022-12-07T14:22:32;8.50;79.50
69626;DHT22;56847;51.984;5.088;2022-12-07T14:25:16;8.50;79.40
69626;DHT22;56847;51.984;5.088;2022-12-07T14:27:59;8.40;79.20
69626;DHT22;56847;51.984;5.088;2022-12-07T14:30:28;8.30;79.20
69626;DHT22;56847;51.984;5.088;2022-12-07T14:33:05;8.30;79.30
69626;DHT22;56847;51.984;5.088;2022-12-07T14:35:32;8.20;79.60
69626;DHT22;56847;51.984;5.088;2022-12-07T14:37:59;8.20;79.80
69626;DHT22;56847;51.984;5.088;2022-12-07T14:40:28;8.20;80.10
69626;DHT22;56847;51.984;5.088;2022-12-07T14:43:10;8.20;80.30
69626;DHT22;56847;51.984;5.088;2022-12-07T14:45:38;8.20;80.40
69626;DHT22;56847;51.984;5.088;2022-12-07T14:48:10;8.20;80.40
69626;DHT22;56847;51.984;5.088;2022-12-07T14:50:57;8.20;80.30
69626;DHT22;56847;51.984;5.088;2022-12-07T14:53:49;8.10;80.60
69626;DHT22;56847;51.984;5.088;2022-12-07T14:56:23;8.10;80.70
69626;DHT22;56847;51.984;5.088;2022-12-07T14:58:51;8.10;80.70
69626;DHT22;56847;51.984;5.088;2022-12-07T15:01:18;8.10;80.60
69626;DHT22;56847;51.984;5.088;2022-12-07T15:03:45;8.10;80.70
69626;DHT22;56847;51.984;5.088;2022-12-07T15:06:16;8.10;80.90
69626;DHT22;56847;51.984;5.088;2022-12-07T15:08:44;8.00;80.90
69626;DHT22;56847;51.984;5.088;2022-12-07T15:11:13;8.00;81.00
69626;DHT22;56847;51.984;5.088;2022-12-07T15:13:44;8.00;81.00
69626;DHT22;56847;51.984;5.088;2022-12-07T15:16:32;8.00;81.10
69626;DHT22;56847;51.984;5.088;2022-12-07T15:19:22;8.00;81.20
69626;DHT22;56847;51.984;5.088;2022-12-07T15:21:56;8.00;81.10
69626;DHT22;56847;51.984;5.088;2022-12-07T15:24:23;7.90;81.30
69626;DHT22;56847;51.984;5.088;2022-12-07T15:26:51;7.90;81.10
69626;DHT22;56847;51.984;5.088;2022-12-07T15:29:21;7.90;81.20
69626;DHT22;56847;51.984;5.088;2022-12-07T15:31:50;7.90;81.20
69626;DHT22;56847;51.984;5.088;2022-12-07T15:34:27;7.90;81.30
69626;DHT22;56847;51.984;5.088;2022-12-07T15:37:04;7.90;81.40
69626;DHT22;56847;51.984;5.088;2022-12-07T15:39:31;7.90;81.60
69626;DHT22;56847;51.984;5.088;2022-12-07T15:42:02;7.90;81.60
69626;DHT22;56847;51.984;5.088;2022-12-07T15:44:29;7.90;81.80
69626;DHT22;56847;51.984;5.088;2022-12-07T15:47:23;8.00;81.80
69626;DHT22;56847;51.984;5.088;2022-12-07T15:49:50;8.00;81.70
69626;DHT22;56847;51.984;5.088;2022-12-07T15:52:18;8.00;81.50
69626;DHT22;56847;51.984;5.088;2022-12-07T15:54:48;8.00;81.50
69626;DHT22;56847;51.984;5.088;2022-12-07T15:57:16;8.00;81.20
69626;DHT22;56847;51.984;5.088;2022-12-07T16:00:07;8.00;80.90
69626;DHT22;56847;51.984;5.088;2022-12-07T16:02:56;7.90;80.80
69626;DHT22;56847;51.984;5.088;2022-12-07T16:05:24;7.90;80.70
69626;DHT22;56847;51.984;5.088;2022-12-07T16:07:50;8.00;80.80
69626;DHT22;56847;51.984;5.088;2022-12-07T16:10:17;7.90;80.60
69626;DHT22;56847;51.984;5.088;2022-12-07T16:12:44;7.90;80.60
69626;DHT22;56847;51.984;5.088;2022-12-07T16:15:11;7.90;80.20
69626;DHT22;56847;51.984;5.088;2022-12-07T16:17:38;7.90;79.90
69626;DHT22;56847;51.984;5.088;2022-12-07T16:20:06;7.80;80.10
69626;DHT22;56847;51.984;5.088;2022-12-07T16:22:37;7.80;80.30
69626;DHT22;56847;51.984;5.088;2022-12-07T16:25:04;7.80;80.10
69626;DHT22;56847;51.984;5.088;2022-12-07T16:27:35;7.70;80.10
69626;DHT22;56847;51.984;5.088;2022-12-07T16:30:06;7.70;80.20
69626;DHT22;56847;51.984;5.088;2022-12-07T16:32:35;7.70;80.20
69626;DHT22;56847;51.984;5.088;2022-12-07T16:35:02;7.60;80.20
69626;DHT22;56847;51.984;5.088;2022-12-07T16:37:30;7.60;80.30
69626;DHT22;56847;51.984;5.088;2022-12-07T16:40:00;7.60;80.40
69626;DHT22;56847;51.984;5.088;2022-12-07T16:42:31;7.60;80.40
69626;DHT22;56847;51.984;5.088;2022-12-07T16:44:59;7.60;80.40
69626;DHT22;56847;51.984;5.088;2022-12-07T16:47:26;7.50;80.50
69626;DHT22;56847;51.984;5.088;2022-12-07T16:49:53;7.50;80.50
69626;DHT22;56847;51.984;5.088;2022-12-07T16:52:21;7.50;80.50
69626;DHT22;56847;51.984;5.088;2022-12-07T16:54:48;7.50;80.70
69626;DHT22;56847;51.984;5.088;2022-12-07T16:57:16;7.40;80.70
69626;DHT22;56847;51.984;5.088;2022-12-07T16:59:49;7.40;80.80
69626;DHT22;56847;51.984;5.088;2022-12-07T17:02:16;7.40;80.90
69626;DHT22;56847;51.984;5.088;2022-12-07T17:04:43;7.40;81.00
69626;DHT22;56847;51.984;5.088;2022-12-07T17:07:12;7.40;81.10
69626;DHT22;56847;51.984;5.088;2022-12-07T17:09:42;7.40;81.20
69626;DHT22;56847;51.984;5.088;2022-12-07T17:12:09;7.40;81.20
69626;DHT22;56847;51.984;5.088;2022-12-07T17:14:37;7.30;81.20
69626;DHT22;56847;51.984;5.088;2022-12-07T17:17:22;7.30;81.40
69626;DHT22;56847;51.984;5.088;2022-12-07T17:19:52;7.30;81.40
69626;DHT22;56847;51.984;5.088;2022-12-07T17:22:19;7.30;81.40
69626;DHT22;56847;51.984;5.088;2022-12-07T17:24:46;7.30;81.40
69626;DHT22;56847;51.984;5.088;2022-12-07T17:27:16;7.30;81.40
69626;DHT22;56847;51.984;5.088;2022-12-07T17:29:43;7.30;81.40
69626;DHT22;56847;51.984;5.088;2022-12-07T17:32:10;7.30;81.60
69626;DHT22;56847;51.984;5.088;2022-12-07T17:34:37;7.30;81.80
69626;DHT22;56847;51.984;5.088;2022-12-07T17:37:04;7.30;81.90
69626;DHT22;56847;51.984;5.088;2022-12-07T17:39:31;7.30;81.90
69626;DHT22;56847;51.984;5.088;2022-12-07T17:41:58;7.30;81.90
69626;DHT22;56847;51.984;5.088;2022-12-07T17:44:43;7.40;81.90
69626;DHT22;56847;51.984;5.088;2022-12-07T17:47:10;7.40;82.00
69626;DHT22;56847;51.984;5.088;2022-12-07T17:49:37;7.40;81.90
69626;DHT22;56847;51.984;5.088;2022-12-07T17:52:04;7.40;81.90
69626;DHT22;56847;51.984;5.088;2022-12-07T17:54:50;7.40;81.90
69626;DHT22;56847;51.984;5.088;2022-12-07T17:57:17;7.40;81.90
69626;DHT22;56847;51.984;5.088;2022-12-07T17:59:44;7.40;82.00
69626;DHT22;56847;51.984;5.088;2022-12-07T18:02:11;7.40;82.00
69626;DHT22;56847;51.984;5.088;2022-12-07T18:04:38;7.40;82.10
69626;DHT22;56847;51.984;5.088;2022-12-07T18:07:08;7.40;82.20
69626;DHT22;56847;51.984;5.088;2022-12-07T18:09:35;7.40;82.30
69626;DHT22;56847;51.984;5.088;2022-12-07T18:12:03;7.50;82.30
69626;DHT22;56847;51.984;5.088;2022-12-07T18:14:30;7.50;82.40
69626;DHT22;56847;51.984;5.088;2022-12-07T18:16:57;7.50;82.10
69626;DHT22;56847;51.984;5.088;2022-12-07T18:19:24;7.50;81.90
69626;DHT22;56847;51.984;5.088;2022-12-07T18:21:51;7.50;82.20
69626;DHT22;56847;51.984;5.088;2022-12-07T18:24:18;7.50;82.40
69626;DHT22;56847;51.984;5.088;2022-12-07T18:26:45;7.50;82.50
69626;DHT22;56847;51.984;5.088;2022-12-07T18:29:15;7.60;82.40
69626;DHT22;56847;51.984;5.088;2022-12-07T18:31:43;7.60;82.40
69626;DHT22;56847;51.984;5.088;2022-12-07T18:34:14;7.60;82.40
69626;DHT22;56847;51.984;5.088;2022-12-07T18:36:44;7.60;82.50
69626;DHT22;56847;51.984;5.088;2022-12-07T18:39:13;7.70;82.50
69626;DHT22;56847;51.984;5.088;2022-12-07T18:41:40;7.70;82.40
69626;DHT22;56847;51.984;5.088;2022-12-07T18:44:11;7.70;82.40
69626;DHT22;56847;51.984;5.088;2022-12-07T18:46:45;7.80;82.40
69626;DHT22;56847;51.984;5.088;2022-12-07T18:49:15;7.80;82.10
69626;DHT22;56847;51.984;5.088;2022-12-07T18:51:43;7.80;82.10
69626;DHT22;56847;51.984;5.088;2022-12-07T18:54:14;7.80;82.00
69626;DHT22;56847;51.984;5.088;2022-12-07T18:56:41;7.90;82.00
69626;DHT22;56847;51.984;5.088;2022-12-07T18:59:12;7.80;82.00
69626;DHT22;56847;51.984;5.088;2022-12-07T19:01:58;7.90;82.00
69626;DHT22;56847;51.984;5.088;2022-12-07T19:04:25;7.80;81.70
69626;DHT22;56847;51.984;5.088;2022-12-07T19:06:52;7.80;81.70
69626;DHT22;56847;51.984;5.088;2022-12-07T19:09:20;7.80;81.80
69626;DHT22;56847;51.984;5.088;2022-12-07T19:11:47;7.70;81.90
69626;DHT22;56847;51.984;5.088;2022-12-07T19:14:20;7.70;82.10
69626;DHT22;56847;51.984;5.088;2022-12-07T19:16:49;7.70;82.10
69626;DHT22;56847;51.984;5.088;2022-12-07T19:19:27;7.70;82.10
69626;DHT22;56847;51.984;5.088;2022-12-07T19:21:54;7.70;82.10
69626;DHT22;56847;51.984;5.088;2022-12-07T19:24:21;7.80;82.20
69626;DHT22;56847;51.984;5.088;2022-12-07T19:26:51;7.80;82.20
69626;DHT22;56847;51.984;5.088;2022-12-07T19:29:49;7.80;82.20
69626;DHT22;56847;51.984;5.088;2022-12-07T19:32:19;7.80;82.10
69626;DHT22;56847;51.984;5.088;2022-12-07T19:34:47;7.80;82.00
69626;DHT22;56847;51.984;5.088;2022-12-07T19:37:16;7.80;81.90
69626;DHT22;56847;51.984;5.088;2022-12-07T19:39:46;7.80;81.90
69626;DHT22;56847;51.984;5.088;2022-12-07T19:42:14;7.80;81.70
69626;DHT22;56847;51.984;5.088;2022-12-07T19:44:41;7.80;81.90